Lampasas, TX

3:05 AM CST on January 27, 2015 (GMT -0600)
Lake Victor, Texas @austingunclub | Change Station
CLOSE
Current Station
Personal Weather Station
Location: Lake Victor, TX
Elevation: 1355 ft
Nearby Weather Stations

Elev 1355 ft 30.93 °N, 98.17 °W | Updated 59 seconds ago

Partly Cloudy
Partly Cloudy
53.4 °F
Feels Like 53.4 °F
N
7.0
Wind Variable Wind from West
Gusts 14.0 mph

Today
High -- | Low -- °F
--% Chance of Precip.
Yesterday
High -- | Low -- °F
Precip. -- in
7:27 AM 6:03 PM
First Quarter, 52% visible
Pressure 30.14 in
Visibility 10.0 miles
Clouds Clear
Dew Point 38 °F
Humidity 56%
Rainfall 0.00 in
Snow Depth Not available.
UV 0 out of 12
Pollen 6.30 out of 12
Air Quality Not available.
Flu Activity Not available.
METAR KLZZ 270855Z AUTO 27008KT 10SM CLR 13/03 A3014 RMK AO2 T01300025

More Conditions Fewer Conditions

Pressure 30.14 in
Visibility 10.0 miles
Clouds Clear
Dew Point 38 °F
Humidity 56%
Rainfall 0.00 in
Snow Depth Not available.
UV 0 out of 12
Pollen 6.30 out of 12
Air Quality Not available.
Flu Activity Not available.
METAR KLZZ 270855Z AUTO 27008KT 10SM CLR 13/03 A3014 RMK AO2 T01300025

More Conditions Fewer Conditions

10-Day Weather Forecast

Almanac

Astronomy

Jan. 27, 2015 Rise Set
Actual Time
Civil Twilight
Nautical Twilight
Astronomical Twilight
Moon
Length of Visible Light
Length of Day
Tomorrow will be .
, % of the Moon is Illuminated

Today's Extremes

State Highs State Lows

Community

WunderPhotos

Upload Photos

1,790,555 photos uploaded!

WunderBlogs® & News

Nearby

Air Quality

  Air Quality AQ Index Pollutant
Not available.

Snow Depth

Station Depth Elevation

Earthquake Activity

City Distance Mag. Time & Date
Minimum magnitude displayed is 2.5.

Coastal Water Temperatures

Place Temperature

Nearby Weather Stations